Time;durP1;ratioP1;P1;durP2;ratioP2;P2;SDS_P1;SDS_P2;PMS_P1;PMS_P2;Temp;Humidity;BMP_temperature;BMP_pressure;BME280_temperature;BME280_humidity;BME280_pressure;Samples;Min_cycle;Max_cycle;Signal;HPM_P1;HPM_P2
2022/04/26 03:36:21;;;;;;;5.05;2.55;;;;;;;;;;4835897;29;20076;-86
2022/04/26 03:38:47;;;;;;;5.18;3.17;;;;;;;;;;4822665;29;20452;-86
2022/04/26 03:41:14;;;;;;;6.18;3.05;;;;;;;;;;4837603;29;20548;-87
2022/04/26 03:43:39;;;;;;;4.30;2.63;;;;;;;;;;4840356;29;20018;-85
2022/04/26 03:46:04;;;;;;;5.53;2.95;;;;;;;;;;4822797;29;20090;-87
2022/04/26 03:48:30;;;;;;;5.45;2.78;;;;;;;;;;4837781;29;20034;-87
2022/04/26 03:50:55;;;;;;;5.53;2.92;;;;;;;;;;4834284;29;20026;-87
2022/04/26 03:53:21;;;;;;;6.45;3.25;;;;;;;;;;4837240;29;20412;-87
2022/04/26 03:55:46;;;;;;;4.32;2.72;;;;;;;;;;4820820;29;20037;-87
2022/04/26 03:58:12;;;;;;;5.25;2.60;;;;;;;;;;4835604;29;20073;-86
2022/04/26 04:00:38;;;;;;;6.60;3.03;;;;;;;;;;4838306;29;20500;-85
2022/04/26 04:03:04;;;;;;;6.43;3.05;;;;;;;;;;4820663;29;20057;-87
2022/04/26 04:05:29;;;;;;;4.65;2.72;;;;;;;;;;4821779;29;20457;-87
2022/04/26 04:07:57;;;;;;;6.80;3.08;;;;;;;;;;4832972;29;20121;-84
2022/04/26 04:10:22;;;;;;;4.60;2.80;;;;;;;;;;4833111;29;20033;-87
2022/04/26 04:12:48;;;;;;;5.47;3.00;;;;;;;;;;4835566;29;20037;-86
2022/04/26 04:15:13;;;;;;;4.00;2.38;;;;;;;;;;4835977;29;20117;-85
2022/04/26 04:17:48;;;;;;;5.75;2.90;;;;;;;;;;4820969;29;20493;-86
2022/04/26 04:20:15;;;;;;;4.60;2.83;;;;;;;;;;4834001;29;20042;-87
2022/04/26 04:22:58;;;;;;;4.72;2.67;;;;;;;;;;4832867;29;20069;-87
2022/04/26 04:25:24;;;;;;;4.53;2.97;;;;;;;;;;4822366;29;20382;-87
2022/04/26 04:27:49;;;;;;;4.90;2.90;;;;;;;;;;4815586;29;20034;-86
2022/04/26 04:30:15;;;;;;;4.68;2.90;;;;;;;;;;4819873;29;20072;-86
2022/04/26 04:32:40;;;;;;;6.22;3.33;;;;;;;;;;4820385;29;20816;-85
2022/04/26 04:35:06;;;;;;;4.53;2.58;;;;;;;;;;4821812;29;20078;-88
2022/04/26 04:37:32;;;;;;;6.30;2.90;;;;;;;;;;4834332;29;20084;-85
2022/04/26 04:39:57;;;;;;;5.30;2.60;;;;;;;;;;4835083;29;20049;-87
2022/04/26 04:42:26;;;;;;;5.75;2.90;;;;;;;;;;4836940;29;20030;-84
2022/04/26 04:44:51;;;;;;;5.18;3.03;;;;;;;;;;4820673;29;20041;-84
2022/04/26 04:47:17;;;;;;;5.30;3.30;;;;;;;;;;4819082;29;20034;-87
2022/04/26 04:49:42;;;;;;;5.13;3.10;;;;;;;;;;4831345;29;20033;-84
2022/04/26 04:52:08;;;;;;;4.95;3.20;;;;;;;;;;4816395;29;20037;-87
2022/04/26 04:54:33;;;;;;;5.18;3.00;;;;;;;;;;4818852;29;20036;-85
2022/04/26 04:56:59;;;;;;;5.50;3.30;;;;;;;;;;4833016;29;20041;-85
2022/04/26 04:59:27;;;;;;;4.97;3.20;;;;;;;;;;4818866;29;20086;-87
2022/04/26 05:01:52;;;;;;;6.80;3.38;;;;;;;;;;4831876;29;20033;-86
2022/04/26 05:04:20;;;;;;;6.35;3.20;;;;;;;;;;4831211;29;20081;-85
2022/04/26 05:06:46;;;;;;;6.32;3.50;;;;;;;;;;4830682;29;20054;-86
2022/04/26 05:09:11;;;;;;;6.15;3.38;;;;;;;;;;4833387;29;20082;-86
2022/04/26 05:11:37;;;;;;;6.68;3.40;;;;;;;;;;4835274;29;20130;-86
2022/04/26 05:14:02;;;;;;;5.57;3.47;;;;;;;;;;4835408;29;20034;-85
2022/04/26 05:16:28;;;;;;;7.00;3.28;;;;;;;;;;4833976;29;20054;-85
2022/04/26 05:18:53;;;;;;;8.05;3.90;;;;;;;;;;4833546;29;20116;-86
2022/04/26 05:21:19;;;;;;;6.15;3.55;;;;;;;;;;4834143;29;20037;-89
2022/04/26 05:26:28;;;;;;;6.43;3.80;;;;;;;;;;4835630;29;20129;-89
2022/04/26 05:28:53;;;;;;;6.45;3.65;;;;;;;;;;4821594;29;20034;-86
2022/04/26 05:31:19;;;;;;;7.28;3.70;;;;;;;;;;4832457;29;20068;-87
2022/04/26 05:33:44;;;;;;;7.65;3.70;;;;;;;;;;4823651;29;20026;-86
2022/04/26 05:36:29;;;;;;;7.00;3.72;;;;;;;;;;4836211;29;20121;-85
2022/04/26 05:38:54;;;;;;;6.63;3.50;;;;;;;;;;4837889;29;20061;-91
2022/04/26 05:41:23;;;;;;;5.90;4.00;;;;;;;;;;4821964;29;20062;-87
2022/04/26 05:43:48;;;;;;;6.15;3.75;;;;;;;;;;4835023;29;20396;-86
2022/04/26 05:46:14;;;;;;;7.80;4.47;;;;;;;;;;4834144;29;20072;-86
2022/04/26 05:48:40;;;;;;;8.30;4.30;;;;;;;;;;4834148;29;20623;-87
2022/04/26 05:51:06;;;;;;;7.88;4.55;;;;;;;;;;4833972;29;20041;-86
2022/04/26 05:53:31;;;;;;;8.18;4.65;;;;;;;;;;4832593;29;20507;-89
2022/04/26 05:55:57;;;;;;;10.38;5.28;;;;;;;;;;4831615;29;20029;-87
2022/04/26 05:58:22;;;;;;;6.57;4.38;;;;;;;;;;4835996;29;20053;-87
2022/04/26 06:00:48;;;;;;;8.68;5.00;;;;;;;;;;4820413;29;20105;-87
2022/04/26 06:03:13;;;;;;;9.52;5.53;;;;;;;;;;4833068;29;20113;-85
2022/04/26 06:05:38;;;;;;;8.50;4.85;;;;;;;;;;4836539;29;20030;-87
2022/04/26 06:08:05;;;;;;;7.80;5.60;;;;;;;;;;4834886;29;20049;-84
2022/04/26 06:10:30;;;;;;;9.57;5.60;;;;;;;;;;4834034;29;20507;-86
2022/04/26 06:12:56;;;;;;;8.85;5.57;;;;;;;;;;4832060;29;20034;-87
2022/04/26 06:15:21;;;;;;;7.55;5.30;;;;;;;;;;4833016;29;20033;-88
2022/04/26 06:17:47;;;;;;;7.43;5.13;;;;;;;;;;4832637;29;20037;-87
2022/04/26 06:20:12;;;;;;;9.65;5.78;;;;;;;;;;4833869;29;20037;-89
2022/04/26 06:22:38;;;;;;;8.35;5.20;;;;;;;;;;4833639;29;20038;-87
2022/04/26 06:25:04;;;;;;;7.50;5.15;;;;;;;;;;4833798;29;20046;-85
2022/04/26 06:27:29;;;;;;;10.80;5.50;;;;;;;;;;4833770;29;20124;-86
2022/04/26 06:29:55;;;;;;;10.10;5.32;;;;;;;;;;4813776;29;20191;-86
2022/04/26 06:32:20;;;;;;;9.35;5.43;;;;;;;;;;4830006;29;20450;-88
2022/04/26 06:35:07;;;;;;;7.18;4.93;;;;;;;;;;4835911;29;20033;-86
2022/04/26 06:37:38;;;;;;;8.23;5.07;;;;;;;;;;4828608;29;20045;-86
2022/04/26 06:40:07;;;;;;;9.45;5.28;;;;;;;;;;4833220;29;20587;-85
2022/04/26 06:42:32;;;;;;;9.52;5.68;;;;;;;;;;4822868;29;20034;-86
2022/04/26 06:44:58;;;;;;;7.53;5.25;;;;;;;;;;4833409;29;20037;-86
2022/04/26 06:47:23;;;;;;;9.50;5.10;;;;;;;;;;4821057;29;20551;-86
2022/04/26 06:49:48;;;;;;;7.53;5.32;;;;;;;;;;4820569;29;20400;-86
2022/04/26 06:52:14;;;;;;;9.25;6.00;;;;;;;;;;4835418;29;20046;-86
2022/04/26 06:54:39;;;;;;;9.85;5.35;;;;;;;;;;4823871;29;20030;-87
2022/04/26 06:57:11;;;;;;;6.68;5.05;;;;;;;;;;4839524;29;20029;-86
2022/04/26 06:59:42;;;;;;;9.18;5.38;;;;;;;;;;4835208;29;20504;-86
2022/04/26 07:02:08;;;;;;;7.88;5.22;;;;;;;;;;4834288;29;20439;-85
2022/04/26 07:04:36;;;;;;;9.60;5.85;;;;;;;;;;4819496;29;20026;-88
2022/04/26 07:07:13;;;;;;;9.05;5.72;;;;;;;;;;4838756;29;20041;-86
2022/04/26 07:09:42;;;;;;;9.38;4.93;;;;;;;;;;4838705;29;20029;-87
2022/04/26 07:12:13;;;;;;;9.68;5.45;;;;;;;;;;4839661;29;20557;-87
2022/04/26 07:14:38;;;;;;;8.35;5.38;;;;;;;;;;4838840;29;20041;-85
2022/04/26 07:17:04;;;;;;;7.10;4.55;;;;;;;;;;4837036;29;20106;-86
2022/04/26 07:19:33;;;;;;;7.13;4.93;;;;;;;;;;4839613;29;20435;-86
2022/04/26 07:21:58;;;;;;;7.32;4.57;;;;;;;;;;4836039;29;20038;-86
2022/04/26 07:24:24;;;;;;;7.35;4.88;;;;;;;;;;4840690;29;20033;-90
2022/04/26 07:26:50;;;;;;;9.48;4.75;;;;;;;;;;4827945;29;20026;-85
2022/04/26 07:29:15;;;;;;;8.80;5.18;;;;;;;;;;4827296;29;20068;-86
2022/04/26 07:31:40;;;;;;;6.63;4.28;;;;;;;;;;4823998;29;20430;-87
2022/04/26 07:34:21;;;;;;;7.25;4.93;;;;;;;;;;4845180;29;20485;-85
2022/04/26 07:37:02;;;;;;;10.38;5.13;;;;;;;;;;4827621;29;20057;-86
2022/04/26 07:42:55;;;;;;;8.80;4.60;;;;;;;;;;4820979;29;20033;-87
2022/04/26 07:45:20;;;;;;;6.00;4.10;;;;;;;;;;4826163;29;20037;-85
2022/04/26 07:47:49;;;;;;;6.03;4.00;;;;;;;;;;4841403;29;20030;-86
2022/04/26 07:53:48;;;;;;;8.48;4.25;;;;;;;;;;4842091;29;20040;-89
2022/04/26 08:03:03;;;;;;;;;;;;;;;;;;;;;
2022/04/26 08:05:57;;;;;;;6.75;3.80;;;;;;;;;;4783201;29;20039;-84
2022/04/26 08:08:27;;;;;;;6.13;3.47;;;;;;;;;;4782338;29;20043;-84
2022/04/26 08:10:52;;;;;;;7.88;3.45;;;;;;;;;;4778439;29;20047;-86
2022/04/26 08:13:23;;;;;;;7.90;3.47;;;;;;;;;;4780962;29;20043;-83
2022/04/26 08:15:52;;;;;;;6.57;3.70;;;;;;;;;;4779611;29;20519;-86
2022/04/26 08:18:23;;;;;;;7.18;3.55;;;;;;;;;;4780137;29;20066;-84
2022/04/26 08:20:55;;;;;;;6.75;4.00;;;;;;;;;;4775569;29;20667;-85
2022/04/26 08:23:23;;;;;;;6.78;3.65;;;;;;;;;;4783716;29;20067;-86
2022/04/26 08:28:55;;;;;;;7.55;3.58;;;;;;;;;;4783294;29;20038;-83
2022/04/26 08:31:27;;;;;;;8.90;3.83;;;;;;;;;;4780227;29;20038;-86
2022/04/26 08:33:55;;;;;;;6.13;3.45;;;;;;;;;;4769525;29;20050;-86
2022/04/26 08:36:27;;;;;;;6.75;3.78;;;;;;;;;;4769621;30;20043;-84
2022/04/26 08:38:58;;;;;;;6.85;3.20;;;;;;;;;;4771930;29;20659;-84
2022/04/26 08:41:27;;;;;;;6.50;3.15;;;;;;;;;;4773496;29;20035;-83
2022/04/26 08:44:30;;;;;;;5.22;3.08;;;;;;;;;;4837717;29;20515;-83
2022/04/26 08:53:31;;;;;;;6.78;3.10;;;;;;;;;;4839625;29;20041;-83
2022/04/26 08:56:03;;;;;;;6.93;3.28;;;;;;;;;;4827874;29;20481;-83
2022/04/26 08:58:32;;;;;;;8.25;3.20;;;;;;;;;;4822306;29;20174;-85
2022/04/26 09:01:08;;;;;;;5.70;2.90;;;;;;;;;;4838104;29;20041;-84
2022/04/26 09:04:02;;;;;;;5.03;3.20;;;;;;;;;;4822416;29;20057;-87
2022/04/26 09:07:03;;;;;;;5.53;3.03;;;;;;;;;;4838834;29;20030;-84
2022/04/26 09:09:31;;;;;;;6.20;3.15;;;;;;;;;;4805646;29;20047;-85
2022/04/26 09:12:02;;;;;;;8.32;3.40;;;;;;;;;;4837719;29;20030;-86
2022/04/26 09:14:50;;;;;;;;;;;;;;;;;;;;;
2022/04/26 09:17:34;;;;;;;4.82;2.80;;;;;;;;;;4829151;29;20053;-82
2022/04/26 09:20:04;;;;;;;4.45;2.92;;;;;;;;;;4824326;29;20033;-85
2022/04/26 09:22:34;;;;;;;5.32;2.90;;;;;;;;;;4838356;29;20504;-86
2022/04/26 09:25:07;;;;;;;6.75;3.17;;;;;;;;;;4825093;29;20034;-82
2022/04/26 09:27:40;;;;;;;4.95;2.67;;;;;;;;;;4823960;29;20589;-83
2022/04/26 09:30:09;;;;;;;;;;;;;;;;;;4836005;29;20040;-82
2022/04/26 09:33:05;;;;;;;5.78;2.92;;;;;;;;;;4815957;29;19925;-83
2022/04/26 09:35:36;;;;;;;6.10;2.83;;;;;;;;;;4815204;29;20034;-83
2022/04/26 09:38:05;;;;;;;6.97;2.90;;;;;;;;;;4835168;29;20492;-83
2022/04/26 09:40:38;;;;;;;5.63;2.80;;;;;;;;;;4833715;29;20105;-82
2022/04/26 09:43:24;;;;;;;;;;;;;;;;;;;;;
2022/04/26 09:46:08;;;;;;;5.63;2.85;;;;;;;;;;4831293;29;20042;-84
2022/04/26 09:48:39;;;;;;;5.57;2.72;;;;;;;;;;4818636;29;20053;-84
2022/04/26 09:51:08;;;;;;;3.88;2.40;;;;;;;;;;4813434;29;21794;-83
2022/04/26 09:53:35;;;;;;;5.30;2.90;;;;;;;;;;4814689;29;20050;-84
2022/04/26 09:56:12;;;;;;;4.60;2.58;;;;;;;;;;4829598;29;20037;-83
2022/04/26 09:58:43;;;;;;;5.57;3.03;;;;;;;;;;4818059;29;20030;-85
2022/04/26 10:01:11;;;;;;;4.18;2.50;;;;;;;;;;4817557;29;20485;-82
2022/04/26 10:03:44;;;;;;;4.90;2.63;;;;;;;;;;4829715;29;20393;-84
2022/04/26 10:06:16;;;;;;;5.15;3.22;;;;;;;;;;4824805;29;20045;-84
2022/04/26 10:08:41;;;;;;;5.07;2.97;;;;;;;;;;4816531;29;20233;-82
2022/04/26 10:11:07;;;;;;;4.65;3.13;;;;;;;;;;4819203;29;20280;-83
2022/04/26 10:13:39;;;;;;;6.43;3.38;;;;;;;;;;4832869;29;20025;-83
2022/04/26 10:16:10;;;;;;;6.90;2.97;;;;;;;;;;4837566;29;20046;-84
2022/04/26 10:18:44;;;;;;;5.82;3.22;;;;;;;;;;4830481;29;20578;-84
2022/04/26 10:21:30;;;;;;;6.57;3.60;;;;;;;;;;4827637;29;20026;-82
2022/04/26 10:24:02;;;;;;;6.35;3.40;;;;;;;;;;4809634;29;21002;-84
2022/04/26 10:26:28;;;;;;;5.80;3.20;;;;;;;;;;4814993;29;20033;-82
2022/04/26 10:29:06;;;;;;;7.18;3.67;;;;;;;;;;4812999;29;20497;-83
2022/04/26 10:31:37;;;;;;;6.72;3.22;;;;;;;;;;4823992;29;20030;-84
2022/04/26 10:34:25;;;;;;;4.82;2.83;;;;;;;;;;4806912;29;20038;-84
2022/04/26 10:37:00;;;;;;;6.00;3.40;;;;;;;;;;4828013;29;20085;-83
2022/04/26 10:39:30;;;;;;;6.90;3.55;;;;;;;;;;4813659;29;20041;-83
2022/04/26 10:41:56;;;;;;;8.50;3.80;;;;;;;;;;4826527;29;20085;-82
2022/04/26 10:44:30;;;;;;;5.35;3.60;;;;;;;;;;4826779;29;20519;-83
2022/04/26 10:47:02;;;;;;;6.18;3.30;;;;;;;;;;4831137;29;20030;-83
2022/04/26 10:49:33;;;;;;;6.22;3.75;;;;;;;;;;4829981;29;20030;-83
2022/04/26 10:52:10;;;;;;;5.18;3.30;;;;;;;;;;4827904;29;20034;-84
2022/04/26 10:55:07;;;;;;;5.45;3.30;;;;;;;;;;4814611;29;20717;-84
2022/04/26 10:57:35;;;;;;;6.57;3.40;;;;;;;;;;4825634;29;20037;-84
2022/04/26 11:00:07;;;;;;;7.30;3.63;;;;;;;;;;4818159;29;20038;-83
2022/04/26 11:02:39;;;;;;;6.03;3.22;;;;;;;;;;4829049;29;20037;-83
2022/04/26 11:05:08;;;;;;;5.50;3.58;;;;;;;;;;4826531;29;20038;-82
2022/04/26 11:07:55;;;;;;;5.18;3.55;;;;;;;;;;4831729;29;20087;-84
2022/04/26 11:13:52;;;;;;;7.38;3.28;;;;;;;;;;4814855;29;20652;-81
2022/04/26 11:16:21;;;;;;;5.55;3.55;;;;;;;;;;4817902;29;20208;-85
2022/04/26 11:18:46;;;;;;;6.45;3.60;;;;;;;;;;4831854;29;20038;-82
2022/04/26 11:21:12;;;;;;;4.65;3.40;;;;;;;;;;4834391;29;20036;-82
2022/04/26 11:29:20;;;;;;;4.88;3.00;;;;;;;;;;4837586;29;20105;-83
2022/04/26 11:31:45;;;;;;;6.55;3.50;;;;;;;;;;4821136;29;20385;-86
2022/04/26 11:34:10;;;;;;;5.80;3.90;;;;;;;;;;4838491;29;20025;-82
2022/04/26 11:36:39;;;;;;;5.30;3.50;;;;;;;;;;4837680;29;20030;-82
2022/04/26 11:39:04;;;;;;;4.72;2.90;;;;;;;;;;4836749;29;20029;-82
2022/04/26 11:41:30;;;;;;;4.90;2.90;;;;;;;;;;4835224;29;20046;-85
2022/04/26 11:44:05;;;;;;;5.20;2.92;;;;;;;;;;4820820;29;20469;-82
2022/04/26 11:46:31;;;;;;;4.05;2.72;;;;;;;;;;4836063;29;20033;-85
2022/04/26 11:48:59;;;;;;;5.15;3.20;;;;;;;;;;4821555;29;20095;-82
2022/04/26 11:51:28;;;;;;;4.38;3.00;;;;;;;;;;4820253;29;20636;-83
2022/04/26 11:53:53;;;;;;;5.38;2.70;;;;;;;;;;4834942;29;20030;-82
2022/04/26 11:56:21;;;;;;;6.30;2.92;;;;;;;;;;4819064;29;20488;-86
2022/04/26 11:58:46;;;;;;;4.32;2.70;;;;;;;;;;4835009;29;20032;-83
2022/04/26 12:01:16;;;;;;;4.45;2.80;;;;;;;;;;4834808;29;20033;-82
2022/04/26 12:03:48;;;;;;;4.13;2.80;;;;;;;;;;4820531;29;20040;-82
2022/04/26 12:06:25;;;;;;;4.45;3.05;;;;;;;;;;4821842;29;20037;-83
2022/04/26 12:08:59;;;;;;;5.53;3.00;;;;;;;;;;4833777;29;20037;-82
2022/04/26 12:11:36;;;;;;;5.43;2.90;;;;;;;;;;4817338;29;20124;-83
2022/04/26 12:14:06;;;;;;;4.13;2.92;;;;;;;;;;4820190;29;20045;-82
2022/04/26 12:16:35;;;;;;;6.85;3.13;;;;;;;;;;4837941;29;20152;-82
2022/04/26 12:19:03;;;;;;;5.45;3.35;;;;;;;;;;4833227;29;20073;-82
2022/04/26 12:21:42;;;;;;;4.20;2.78;;;;;;;;;;4821656;29;20037;-82
2022/04/26 12:24:09;;;;;;;4.55;2.97;;;;;;;;;;4822874;29;20162;-81
2022/04/26 12:26:35;;;;;;;6.07;2.75;;;;;;;;;;4835770;29;20122;-83
2022/04/26 12:29:13;;;;;;;6.10;3.40;;;;;;;;;;4824691;29;20098;-84
2022/04/26 12:31:46;;;;;;;4.95;3.08;;;;;;;;;;4834990;29;20061;-84
2022/04/26 12:34:17;;;;;;;6.03;3.50;;;;;;;;;;4816450;29;20032;-85
2022/04/26 12:36:53;;;;;;;6.38;3.20;;;;;;;;;;4818779;29;20397;-81
2022/04/26 12:39:20;;;;;;;4.93;3.13;;;;;;;;;;4835630;29;20044;-82
2022/04/26 12:41:51;;;;;;;3.55;2.63;;;;;;;;;;4829965;29;20505;-85
2022/04/26 12:44:17;;;;;;;5.03;3.38;;;;;;;;;;4820632;29;20030;-86
2022/04/26 12:52:52;;;;;;;11.07;3.43;;;;;;;;;;4835271;29;20102;-82
2022/04/26 12:55:43;;;;;;;5.60;3.25;;;;;;;;;;4829008;29;20040;-81
2022/04/26 12:58:10;;;;;;;5.68;2.72;;;;;;;;;;4817390;29;20096;-84
2022/04/26 13:00:41;;;;;;;4.82;2.92;;;;;;;;;;4817290;29;20040;-82
2022/04/26 13:03:07;;;;;;;4.03;2.83;;;;;;;;;;4814372;29;20293;-84
2022/04/26 13:05:44;;;;;;;4.85;2.92;;;;;;;;;;4828127;29;20045;-83
2022/04/26 13:08:11;;;;;;;3.83;2.60;;;;;;;;;;4829303;29;20040;-83
2022/04/26 13:10:40;;;;;;;3.90;2.65;;;;;;;;;;4827964;29;20065;-82
2022/04/26 13:13:05;;;;;;;5.47;2.97;;;;;;;;;;4806311;29;20300;-84
2022/04/26 13:15:31;;;;;;;5.30;2.83;;;;;;;;;;4828843;29;20820;-83
2022/04/26 13:17:57;;;;;;;4.00;2.72;;;;;;;;;;4828403;29;20054;-84
2022/04/26 13:20:22;;;;;;;5.50;2.70;;;;;;;;;;4811433;29;20675;-85
2022/04/26 13:22:48;;;;;;;4.05;2.40;;;;;;;;;;4829020;29;20034;-84
2022/04/26 13:25:13;;;;;;;3.67;2.53;;;;;;;;;;4810700;29;20511;-84
2022/04/26 13:27:39;;;;;;;5.00;2.70;;;;;;;;;;4811563;29;20029;-86
2022/04/26 13:30:06;;;;;;;6.88;2.78;;;;;;;;;;4826783;29;20086;-81
2022/04/26 13:32:32;;;;;;;5.03;2.47;;;;;;;;;;4830629;29;20042;-85
2022/04/26 13:34:58;;;;;;;4.10;2.50;;;;;;;;;;4813677;29;20168;-83
2022/04/26 13:37:24;;;;;;;4.00;2.67;;;;;;;;;;4825998;29;20045;-84
2022/04/26 13:39:50;;;;;;;4.25;2.60;;;;;;;;;;4827402;29;20090;-83
2022/04/26 13:42:17;;;;;;;5.82;3.35;;;;;;;;;;4828515;29;20771;-86
2022/04/26 13:44:42;;;;;;;5.50;3.22;;;;;;;;;;4808820;29;20038;-83
2022/04/26 13:47:08;;;;;;;4.55;2.78;;;;;;;;;;4814604;29;20029;-83
2022/04/26 13:49:42;;;;;;;6.90;3.00;;;;;;;;;;4826628;29;20066;-85
2022/04/26 13:52:09;;;;;;;5.57;2.72;;;;;;;;;;4813508;29;20030;-85
2022/04/26 13:54:35;;;;;;;5.80;2.75;;;;;;;;;;4812158;29;20588;-85
2022/04/26 13:57:01;;;;;;;5.15;2.47;;;;;;;;;;4810260;29;20141;-82
2022/04/26 13:59:26;;;;;;;4.47;2.90;;;;;;;;;;4827963;29;20030;-86
2022/04/26 14:01:53;;;;;;;4.65;2.53;;;;;;;;;;4827844;29;20136;-83
2022/04/26 14:04:19;;;;;;;3.85;2.63;;;;;;;;;;4811761;29;20163;-83
2022/04/26 14:06:45;;;;;;;4.38;2.60;;;;;;;;;;4829448;29;20116;-83
2022/04/26 14:09:11;;;;;;;4.88;2.67;;;;;;;;;;4814116;29;20086;-83
2022/04/26 14:11:37;;;;;;;3.90;2.72;;;;;;;;;;4825174;29;20492;-83
2022/04/26 14:22:14;;;;;;;4.82;2.88;;;;;;;;;;4824912;29;20142;-83
2022/04/26 14:24:39;;;;;;;5.28;3.00;;;;;;;;;;4823579;29;20045;-86
2022/04/26 14:27:05;;;;;;;5.40;2.60;;;;;;;;;;4812981;29;20030;-82
2022/04/26 14:29:31;;;;;;;4.63;2.42;;;;;;;;;;4826230;29;20042;-84
2022/04/26 14:31:57;;;;;;;5.07;2.63;;;;;;;;;;4823853;29;20038;-84
2022/04/26 14:34:22;;;;;;;7.32;2.95;;;;;;;;;;4830137;29;20552;-85
2022/04/26 14:36:48;;;;;;;5.35;2.47;;;;;;;;;;4826355;29;20485;-82
2022/04/26 14:39:15;;;;;;;3.53;2.50;;;;;;;;;;4827188;29;20041;-80
2022/04/26 14:41:41;;;;;;;4.60;2.60;;;;;;;;;;4826413;29;20125;-85
2022/04/26 14:44:06;;;;;;;5.38;2.55;;;;;;;;;;4814278;29;20120;-85
2022/04/26 14:46:33;;;;;;;4.03;2.50;;;;;;;;;;4808663;29;20076;-83
2022/04/26 14:48:58;;;;;;;4.50;2.50;;;;;;;;;;4827879;29;20149;-85
2022/04/26 14:51:24;;;;;;;4.18;2.45;;;;;;;;;;4815667;29;20168;-81
2022/04/26 14:53:49;;;;;;;4.93;2.90;;;;;;;;;;4818329;29;20042;-84
2022/04/26 14:56:15;;;;;;;4.07;2.50;;;;;;;;;;4814243;29;20038;-81
2022/04/26 14:58:41;;;;;;;4.40;2.53;;;;;;;;;;4832633;29;20557;-83
2022/04/26 15:01:07;;;;;;;3.85;2.45;;;;;;;;;;4832797;29;20034;-83
2022/04/26 15:03:32;;;;;;;5.20;2.80;;;;;;;;;;4834447;29;20090;-82
2022/04/26 15:05:59;;;;;;;4.68;2.50;;;;;;;;;;4821711;29;20040;-84
2022/04/26 15:11:09;;;;;;;5.15;2.60;;;;;;;;;;4832221;29;20050;-83
2022/04/26 15:19:06;;;;;;;3.92;2.13;;;;;;;;;;4834130;29;20044;-81
2022/04/26 15:21:32;;;;;;;4.75;2.25;;;;;;;;;;4819509;29;20037;-83
2022/04/26 15:23:58;;;;;;;4.22;2.42;;;;;;;;;;4832509;29;20026;-86
2022/04/26 15:26:27;;;;;;;4.75;2.38;;;;;;;;;;4834986;29;20038;-82
2022/04/26 15:28:52;;;;;;;4.50;2.38;;;;;;;;;;4816655;29;20493;-83
2022/04/26 15:31:19;;;;;;;3.60;2.15;;;;;;;;;;4836371;29;20030;-85
2022/04/26 15:34:03;;;;;;;3.25;1.90;;;;;;;;;;4821476;29;20379;-83
2022/04/26 15:36:36;;;;;;;4.47;2.22;;;;;;;;;;4821830;29;20026;-87
2022/04/26 15:39:04;;;;;;;3.57;2.40;;;;;;;;;;4837605;29;20082;-88
2022/04/26 15:41:35;;;;;;;4.90;2.15;;;;;;;;;;4835453;29;20050;-82
2022/04/26 15:44:05;;;;;;;5.18;2.17;;;;;;;;;;4837267;29;20038;-81
2022/04/26 15:46:39;;;;;;;3.65;2.15;;;;;;;;;;4840449;29;20022;-82
2022/04/26 15:49:05;;;;;;;4.00;2.20;;;;;;;;;;4840465;29;20071;-84
2022/04/26 15:51:36;;;;;;;3.13;1.80;;;;;;;;;;4839377;29;20038;-86
2022/04/26 15:54:08;;;;;;;4.93;2.03;;;;;;;;;;4835903;29;20026;-83
2022/04/26 15:56:37;;;;;;;7.90;1.95;;;;;;;;;;4824234;29;20042;-82
2022/04/26 15:59:06;;;;;;;2.47;1.67;;;;;;;;;;4835492;29;20034;-82
2022/04/26 16:01:41;;;;;;;3.22;1.80;;;;;;;;;;4837574;29;20040;-86
2022/04/26 16:04:09;;;;;;;3.55;2.00;;;;;;;;;;4839964;29;20030;-82
2022/04/26 16:06:40;;;;;;;4.72;1.98;;;;;;;;;;4838685;29;20042;-82
2022/04/26 16:21:42;;;;;;;2.95;1.80;;;;;;;;;;4841584;29;20531;-83
2022/04/26 16:24:11;;;;;;;;;;;;;;;;;;4835665;29;20025;-82
2022/04/26 16:26:42;;;;;;;2.42;1.60;;;;;;;;;;4820301;29;19924;-84
2022/04/26 16:29:12;;;;;;;3.13;1.70;;;;;;;;;;4823681;29;20026;-88
2022/04/26 16:31:41;;;;;;;2.88;1.75;;;;;;;;;;4836697;29;20021;-87
2022/04/26 16:34:13;;;;;;;2.20;1.48;;;;;;;;;;4822677;29;20030;-82
2022/04/26 16:36:40;;;;;;;3.45;1.92;;;;;;;;;;4841026;29;20084;-83
2022/04/26 16:39:06;;;;;;;3.80;2.00;;;;;;;;;;4820040;29;20519;-84
2022/04/26 16:41:32;;;;;;;3.90;1.85;;;;;;;;;;4848698;29;20036;-88
2022/04/26 16:44:03;;;;;;;4.50;2.10;;;;;;;;;;4833503;29;20023;-85
2022/04/26 16:46:30;;;;;;;3.17;2.10;;;;;;;;;;4815924;29;20091;-86
2022/04/26 16:48:57;;;;;;;3.40;2.00;;;;;;;;;;4839068;29;20037;-86
2022/04/26 16:51:22;;;;;;;3.60;2.10;;;;;;;;;;4839238;29;20169;-80
2022/04/26 16:53:48;;;;;;;3.85;2.03;;;;;;;;;;4835162;29;20034;-87
2022/04/26 16:56:15;;;;;;;4.28;2.33;;;;;;;;;;4827315;29;20037;-85
2022/04/26 16:58:41;;;;;;;3.45;2.47;;;;;;;;;;4837399;29;20398;-84
2022/04/26 17:01:07;;;;;;;5.32;2.50;;;;;;;;;;4829103;29;20141;-88
2022/04/26 17:03:36;;;;;;;7.57;2.50;;;;;;;;;;4835674;29;20382;-84
2022/04/26 17:06:01;;;;;;;4.80;3.00;;;;;;;;;;4835969;29;20473;-81
2022/04/26 17:08:27;;;;;;;5.30;2.28;;;;;;;;;;4839372;29;20041;-83
2022/04/26 17:11:41;;;;;;;3.67;2.58;;;;;;;;;;4835128;29;20034;-84
2022/04/26 17:13:38;;;;;;;5.18;2.35;;;;;;;;;;4840073;29;20138;-84
2022/04/26 17:16:03;;;;;;;3.80;2.40;;;;;;;;;;4841892;29;20029;-80
2022/04/26 17:18:29;;;;;;;4.82;2.85;;;;;;;;;;4837788;29;20037;-87
2022/04/26 17:20:55;;;;;;;5.00;2.65;;;;;;;;;;4828158;29;20045;-86
2022/04/26 17:23:20;;;;;;;4.47;2.97;;;;;;;;;;4830009;29;20034;-87
2022/04/26 17:25:47;;;;;;;5.25;2.65;;;;;;;;;;4838436;29;20754;-84
2022/04/26 17:28:13;;;;;;;4.25;2.72;;;;;;;;;;4832082;29;20422;-83
2022/04/26 17:30:49;;;;;;;3.35;2.35;;;;;;;;;;4844279;29;20040;-81
2022/04/26 17:33:14;;;;;;;5.30;2.85;;;;;;;;;;4830071;29;20116;-84
2022/04/26 17:35:52;;;;;;;3.92;2.58;;;;;;;;;;4836004;29;20029;-86
2022/04/26 17:38:18;;;;;;;3.80;2.47;;;;;;;;;;4839429;29;20043;-83
2022/04/26 17:40:56;;;;;;;4.50;2.65;;;;;;;;;;4849880;29;20026;-84
2022/04/26 17:43:21;;;;;;;4.47;2.88;;;;;;;;;;4836752;29;20034;-84
2022/04/26 17:45:47;;;;;;;5.00;3.40;;;;;;;;;;4842191;29;20040;-80
2022/04/26 17:48:13;;;;;;;5.78;2.92;;;;;;;;;;4826643;29;20034;-83
2022/04/26 17:50:40;;;;;;;4.53;3.13;;;;;;;;;;4830231;29;20076;-80
2022/04/26 17:58:34;;;;;;;6.07;3.10;;;;;;;;;;4836998;29;20409;-79
2022/04/26 18:00:59;;;;;;;5.05;2.83;;;;;;;;;;4837509;29;20029;-86
2022/04/26 18:03:26;;;;;;;5.65;3.30;;;;;;;;;;4847942;29;20455;-83
2022/04/26 18:05:51;;;;;;;5.18;3.17;;;;;;;;;;4841267;29;20492;-82
2022/04/26 18:08:23;;;;;;;4.82;3.25;;;;;;;;;;4822733;29;20037;-87
2022/04/26 18:10:57;;;;;;;6.23;3.20;;;;;;;;;;4818323;29;20046;-84
2022/04/26 18:13:26;;;;;;;6.13;3.45;;;;;;;;;;4836633;29;20037;-85
2022/04/26 18:15:58;;;;;;;5.22;3.10;;;;;;;;;;4829039;29;20270;-87
2022/04/26 18:18:30;;;;;;;5.93;2.85;;;;;;;;;;4820839;29;20114;-84
2022/04/26 18:21:01;;;;;;;4.35;2.90;;;;;;;;;;4826207;29;20041;-87
2022/04/26 18:23:28;;;;;;;4.50;2.63;;;;;;;;;;4827425;29;20448;-83
2022/04/26 18:26:15;;;;;;;4.97;3.03;;;;;;;;;;4840645;29;20034;-84
2022/04/26 18:28:56;;;;;;;4.22;2.65;;;;;;;;;;4816608;29;20041;-85
2022/04/26 18:31:31;;;;;;;4.32;2.90;;;;;;;;;;4834490;29;20572;-85
2022/04/26 18:37:01;;;;;;;6.03;2.83;;;;;;;;;;4832124;29;20046;-84
2022/04/26 18:39:33;;;;;;;4.35;2.78;;;;;;;;;;4816020;29;20136;-84
2022/04/26 18:42:02;;;;;;;5.90;2.67;;;;;;;;;;4834109;29;20102;-83
2022/04/26 18:44:33;;;;;;;5.30;3.13;;;;;;;;;;4828102;29;20112;-82
2022/04/26 18:47:04;;;;;;;4.88;2.65;;;;;;;;;;4813922;29;20037;-84
2022/04/26 18:49:47;;;;;;;;;;;;;;;;;;;;;
2022/04/26 18:52:13;;;;;;;4.60;2.83;;;;;;;;;;4823022;29;20060;-84
2022/04/26 18:54:39;;;;;;;6.20;3.03;;;;;;;;;;4829280;29;20042;-84
2022/04/26 18:57:04;;;;;;;4.65;2.80;;;;;;;;;;4830251;29;20169;-83
2022/04/26 18:59:35;;;;;;;5.07;3.03;;;;;;;;;;4827647;29;20082;-84
2022/04/26 19:02:07;;;;;;;4.90;3.00;;;;;;;;;;4818732;29;20519;-82
2022/04/26 19:04:35;;;;;;;4.70;2.67;;;;;;;;;;4809885;29;20054;-84
2022/04/26 19:07:07;;;;;;;5.25;2.80;;;;;;;;;;4816196;29;20054;-82
2022/04/26 19:12:15;;;;;;;5.35;3.20;;;;;;;;;;4835428;29;20516;-85
2022/04/26 19:12:44;;;;;;;5.32;3.22;;;;;;;;;;4830763;29;20121;-84
2022/04/26 19:15:10;;;;;;;5.20;3.03;;;;;;;;;;4811494;29;20955;-85
2022/04/26 19:17:39;;;;;;;5.20;3.08;;;;;;;;;;4833472;29;20053;-82
2022/04/26 19:20:11;;;;;;;5.38;3.17;;;;;;;;;;4831528;29;20041;-87
2022/04/26 19:22:39;;;;;;;4.63;3.15;;;;;;;;;;4828694;29;20060;-85
2022/04/26 19:25:09;;;;;;;5.75;3.10;;;;;;;;;;4829506;29;20549;-84
2022/04/26 19:27:41;;;;;;;5.25;3.13;;;;;;;;;;4816242;29;20030;-82
2022/04/26 19:30:10;;;;;;;5.13;3.30;;;;;;;;;;4827030;29;20037;-84
2022/04/26 19:32:41;;;;;;;4.97;3.20;;;;;;;;;;4827879;29;20154;-84
2022/04/26 19:35:12;;;;;;;5.65;3.42;;;;;;;;;;4825831;29;20041;-84
2022/04/26 19:37:41;;;;;;;5.43;3.30;;;;;;;;;;4830535;29;20585;-85
2022/04/26 19:40:15;;;;;;;5.82;2.95;;;;;;;;;;4831278;29;20839;-84
2022/04/26 19:42:44;;;;;;;6.38;3.20;;;;;;;;;;4829866;29;20493;-83
2022/04/26 19:45:14;;;;;;;4.78;2.97;;;;;;;;;;4834545;29;20125;-84
2022/04/26 19:47:43;;;;;;;5.60;3.58;;;;;;;;;;4802879;29;20527;-83
2022/04/26 19:53:13;;;;;;;5.75;2.90;;;;;;;;;;4829811;29;20049;-84
2022/04/26 19:55:48;;;;;;;5.50;3.10;;;;;;;;;;4828574;29;20034;-84
2022/04/26 19:58:17;;;;;;;5.55;3.47;;;;;;;;;;4831464;29;20496;-82